createdAt,value
2022-10-11T00:00:14.186Z,1014.27
2022-10-11T00:01:14.189Z,1014.32
2022-10-11T00:02:14.205Z,1014.26
2022-10-11T00:03:14.147Z,1014.24
2022-10-11T00:04:14.133Z,1014.27
2022-10-11T00:05:14.137Z,1014.31
2022-10-11T00:06:14.138Z,1014.34
2022-10-11T00:07:14.109Z,1014.38
2022-10-11T00:08:14.127Z,1014.33
2022-10-11T00:09:14.098Z,1014.36
2022-10-11T00:10:14.082Z,1014.41
2022-10-11T00:11:14.065Z,1014.40
2022-10-11T00:12:14.044Z,1014.45
2022-10-11T00:13:14.045Z,1014.48
2022-10-11T00:14:14.065Z,1014.51
2022-10-11T00:15:14.016Z,1014.47
2022-10-11T00:16:14.010Z,1014.50
2022-10-11T00:17:13.999Z,1014.53
2022-10-11T00:18:13.984Z,1014.62
2022-10-11T00:19:14.005Z,1014.59
2022-10-11T00:20:13.987Z,1014.65
2022-10-11T00:21:13.953Z,1014.61
2022-10-11T00:22:13.948Z,1014.64
2022-10-11T00:23:13.935Z,1014.69
2022-10-11T00:24:13.951Z,1014.69
2022-10-11T00:25:13.915Z,1014.69
2022-10-11T00:26:13.906Z,1014.65
2022-10-11T00:27:13.894Z,1014.71
2022-10-11T00:28:13.936Z,1014.72
2022-10-11T00:29:13.869Z,1014.74
2022-10-11T00:30:13.889Z,1014.75
2022-10-11T00:31:13.848Z,1014.77
2022-10-11T00:32:13.838Z,1014.84
2022-10-11T00:33:13.866Z,1014.82
2022-10-11T00:34:13.825Z,1014.85
2022-10-11T00:35:13.806Z,1014.86
2022-10-11T00:36:13.792Z,1014.84
2022-10-11T00:37:13.797Z,1014.88
2022-10-11T00:38:13.774Z,1014.92
2022-10-11T00:39:14.590Z,1014.90
2022-10-11T00:40:13.784Z,1014.95
2022-10-11T00:41:13.765Z,1014.92
2022-10-11T00:42:13.738Z,1014.92
2022-10-11T00:43:13.731Z,1014.92
2022-10-11T00:44:13.733Z,1014.95
2022-10-11T00:45:13.722Z,1014.97
2022-10-11T00:46:13.697Z,1014.96
2022-10-11T00:47:13.685Z,1015.01
2022-10-11T00:48:13.667Z,1014.99
2022-10-11T00:49:13.646Z,1015.00
2022-10-11T00:50:13.653Z,1015.04
2022-10-11T00:51:13.622Z,1015.04
2022-10-11T00:52:13.653Z,1015.08
2022-10-11T00:53:13.615Z,1015.07
2022-10-11T00:54:13.591Z,1015.08
2022-10-11T00:55:13.595Z,1015.06
2022-10-11T00:56:13.563Z,1015.12
2022-10-11T00:57:13.558Z,1015.14
2022-10-11T00:58:13.606Z,1015.12
2022-10-11T00:59:13.546Z,1015.09
2022-10-11T01:00:13.532Z,1015.14
2022-10-11T01:01:13.593Z,1015.14
2022-10-11T01:02:13.514Z,1015.15
2022-10-11T01:03:13.508Z,1015.11
2022-10-11T01:04:13.499Z,1015.10
2022-10-11T01:05:30.178Z,1015.14
2022-10-11T01:06:14.454Z,1015.12
2022-10-11T01:07:13.447Z,1015.17
2022-10-11T01:08:13.441Z,1015.18
2022-10-11T01:09:13.480Z,1015.20
2022-10-11T01:10:13.455Z,1015.18
2022-10-11T01:11:13.476Z,1015.20
2022-10-11T01:12:13.395Z,1015.16
2022-10-11T01:13:13.428Z,1015.22
2022-10-11T01:14:13.390Z,1015.29
2022-10-11T01:15:13.371Z,1015.27
2022-10-11T01:16:13.362Z,1015.28
2022-10-11T01:17:13.338Z,1015.28
2022-10-11T01:18:13.346Z,1015.30
2022-10-11T01:19:13.341Z,1015.30
2022-10-11T01:20:13.306Z,1015.36
2022-10-11T01:21:13.317Z,1015.32
2022-10-11T01:22:13.286Z,1015.37
2022-10-11T01:23:13.278Z,1015.35
2022-10-11T01:24:13.288Z,1015.41
2022-10-11T01:25:13.281Z,1015.41
2022-10-11T01:26:13.274Z,1015.37
2022-10-11T01:27:13.235Z,1015.50
2022-10-11T01:28:13.307Z,1015.47
2022-10-11T01:29:13.244Z,1015.46
2022-10-11T01:30:13.245Z,1015.51
2022-10-11T01:31:13.192Z,1015.50
2022-10-11T01:32:13.182Z,1015.54
2022-10-11T01:33:13.176Z,1015.52
2022-10-11T01:34:13.158Z,1015.58
2022-10-11T01:35:13.157Z,1015.60
2022-10-11T01:36:13.163Z,1015.54
2022-10-11T01:37:13.128Z,1015.55
2022-10-11T01:38:13.138Z,1015.59
2022-10-11T01:39:13.106Z,1015.60
2022-10-11T01:40:13.098Z,1015.60
2022-10-11T01:41:13.106Z,1015.57
2022-10-11T01:42:13.081Z,1015.60
2022-10-11T01:43:13.055Z,1015.60
2022-10-11T01:44:13.042Z,1015.58
2022-10-11T01:45:13.078Z,1015.60
2022-10-11T01:46:13.042Z,1015.59
2022-10-11T01:47:13.016Z,1015.60
2022-10-11T01:48:12.999Z,1015.62
2022-10-11T01:49:13.006Z,1015.64
2022-10-11T01:50:12.988Z,1015.66
2022-10-11T01:51:13.012Z,1015.67
2022-10-11T01:52:12.967Z,1015.68
2022-10-11T01:53:12.965Z,1015.67
2022-10-11T01:54:12.939Z,1015.65
2022-10-11T01:55:12.934Z,1015.68
2022-10-11T01:56:12.940Z,1015.69
2022-10-11T01:57:12.916Z,1015.70
2022-10-11T01:58:12.910Z,1015.70
2022-10-11T01:59:12.886Z,1015.74
2022-10-11T02:00:12.899Z,1015.74
2022-10-11T02:01:12.936Z,1015.75
2022-10-11T02:02:12.867Z,1015.78
2022-10-11T02:03:12.862Z,1015.76
2022-10-11T02:04:12.846Z,1015.78
2022-10-11T02:05:12.821Z,1015.80
2022-10-11T02:06:12.817Z,1015.81
2022-10-11T02:07:12.814Z,1015.82
2022-10-11T02:08:12.807Z,1015.81
2022-10-11T02:09:12.782Z,1015.84
2022-10-11T02:10:12.771Z,1015.83
2022-10-11T02:11:12.758Z,1015.85
2022-10-11T02:12:12.755Z,1015.84
2022-10-11T02:13:12.747Z,1015.90
2022-10-11T02:14:12.762Z,1015.86
2022-10-11T02:15:12.737Z,1015.87
2022-10-11T02:16:12.723Z,1015.88
2022-10-11T02:17:12.695Z,1015.91
2022-10-11T02:18:12.703Z,1015.88
2022-10-11T02:19:12.710Z,1015.87
2022-10-11T02:20:12.673Z,1015.89
2022-10-11T02:21:12.669Z,1015.96
2022-10-11T02:22:12.658Z,1016.00
2022-10-11T02:23:12.634Z,1015.96
2022-10-11T02:24:12.622Z,1015.97
2022-10-11T02:25:12.638Z,1015.93
2022-10-11T02:26:12.613Z,1015.98
2022-10-11T02:27:12.583Z,1015.98
2022-10-11T02:28:12.628Z,1015.98
2022-10-11T02:29:12.586Z,1015.96
2022-10-11T02:30:12.561Z,1015.95
2022-10-11T02:31:12.561Z,1015.97
2022-10-11T02:32:12.540Z,1015.98
2022-10-11T02:33:12.536Z,1015.99
2022-10-11T02:34:12.523Z,1015.97
2022-10-11T02:35:12.524Z,1016.00
2022-10-11T02:36:12.521Z,1016.00
2022-10-11T02:37:12.502Z,1016.06
2022-10-11T02:38:12.482Z,1016.06
2022-10-11T02:39:12.465Z,1016.04
2022-10-11T02:40:12.466Z,1016.03
2022-10-11T02:41:12.445Z,1016.05
2022-10-11T02:42:12.429Z,1016.04
2022-10-11T02:43:12.426Z,1016.05
2022-10-11T02:44:12.423Z,1016.04
2022-10-11T02:45:12.395Z,1016.07
2022-10-11T02:46:12.396Z,1016.06
2022-10-11T02:47:12.374Z,1016.05
2022-10-11T02:48:12.363Z,1016.05
2022-10-11T02:49:12.350Z,1016.04
2022-10-11T02:50:12.367Z,1016.09
2022-10-11T02:51:12.342Z,1016.05
2022-10-11T02:52:12.316Z,1016.06
2022-10-11T02:53:12.333Z,1016.11
2022-10-11T02:54:12.299Z,1016.11
2022-10-11T02:55:12.297Z,1016.07
2022-10-11T02:56:12.280Z,1016.13
2022-10-11T02:57:12.277Z,1016.11
2022-10-11T02:58:12.256Z,1016.16
2022-10-11T02:59:12.249Z,1016.12
2022-10-11T03:00:12.233Z,1016.15
2022-10-11T03:01:12.270Z,1016.11
2022-10-11T03:02:12.209Z,1016.19
2022-10-11T03:03:12.209Z,1016.17
2022-10-11T03:04:12.208Z,1016.16
2022-10-11T03:05:12.181Z,1016.19
2022-10-11T03:06:12.188Z,1016.20
2022-10-11T03:07:12.162Z,1016.20
2022-10-11T03:08:12.195Z,1016.24
2022-10-11T03:09:12.167Z,1016.22
2022-10-11T03:10:12.275Z,1016.27
2022-10-11T03:11:12.127Z,1016.30
2022-10-11T03:12:12.105Z,1016.29
2022-10-11T03:13:15.954Z,1016.36
2022-10-11T03:14:13.105Z,1016.37
2022-10-11T03:15:12.076Z,1016.36
2022-10-11T03:16:12.460Z,1016.43
2022-10-11T03:17:35.018Z,1016.42
2022-10-11T03:18:13.046Z,1016.42
2022-10-11T03:19:14.649Z,1016.47
2022-10-11T03:20:13.016Z,1016.47
2022-10-11T03:21:12.023Z,1016.49
2022-10-11T03:22:12.068Z,1016.49
2022-10-11T03:23:11.992Z,1016.50
2022-10-11T03:24:11.967Z,1016.54
2022-10-11T03:25:11.984Z,1016.54
2022-10-11T03:26:11.957Z,1016.58
2022-10-11T03:27:11.951Z,1016.56
2022-10-11T03:28:11.989Z,1016.61
2022-10-11T03:29:12.026Z,1016.63
2022-10-11T03:30:16.127Z,1016.66
2022-10-11T03:31:11.937Z,1016.58
2022-10-11T03:32:11.893Z,1016.61
2022-10-11T03:33:11.882Z,1016.65
2022-10-11T03:34:11.866Z,1016.65
2022-10-11T03:35:11.854Z,1016.66
2022-10-11T03:36:11.857Z,1016.71
2022-10-11T03:37:11.848Z,1016.72
2022-10-11T03:38:13.050Z,1016.73
2022-10-11T03:39:11.821Z,1016.77
2022-10-11T03:40:11.830Z,1016.73
2022-10-11T03:41:11.787Z,1016.74
2022-10-11T03:42:11.782Z,1016.74
2022-10-11T03:43:11.796Z,1016.76
2022-10-11T03:44:11.785Z,1016.74
2022-10-11T03:45:11.776Z,1016.77
2022-10-11T03:46:11.754Z,1016.73
2022-10-11T03:47:11.730Z,1016.81
2022-10-11T03:48:11.718Z,1016.79
2022-10-11T03:49:11.719Z,1016.80
2022-10-11T03:50:11.710Z,1016.80
2022-10-11T03:51:11.704Z,1016.82
2022-10-11T03:52:11.671Z,1016.85
2022-10-11T03:53:11.671Z,1016.85
2022-10-11T03:54:11.666Z,1016.86
2022-10-11T03:55:11.649Z,1016.89
2022-10-11T03:56:12.087Z,1016.88
2022-10-11T03:57:11.658Z,1016.88
2022-10-11T03:58:11.621Z,1016.90
2022-10-11T03:59:11.619Z,1016.91
2022-10-11T04:00:11.591Z,1016.94
2022-10-11T04:01:11.579Z,1016.91
2022-10-11T04:02:11.653Z,1016.96
2022-10-11T04:03:11.639Z,1017.01
2022-10-11T04:04:11.561Z,1016.97
2022-10-11T04:05:11.538Z,1016.99
2022-10-11T04:06:11.527Z,1017.00
2022-10-11T04:07:11.516Z,1016.99
2022-10-11T04:08:12.483Z,1017.03
2022-10-11T04:09:11.513Z,1017.02
2022-10-11T04:10:11.491Z,1017.07
2022-10-11T04:11:11.461Z,1017.07
2022-10-11T04:12:11.458Z,1017.08
2022-10-11T04:13:11.450Z,1017.08
2022-10-11T04:14:11.470Z,1017.11
2022-10-11T04:15:11.429Z,1017.10
2022-10-11T04:16:11.410Z,1017.11
2022-10-11T04:17:11.401Z,1017.18
2022-10-11T04:18:11.398Z,1017.14
2022-10-11T04:19:11.389Z,1017.19
2022-10-11T04:20:11.401Z,1017.18
2022-10-11T04:21:11.362Z,1017.17
2022-10-11T04:22:11.350Z,1017.20
2022-10-11T04:23:11.332Z,1017.18
2022-10-11T04:24:11.337Z,1017.21
2022-10-11T04:25:11.340Z,1017.18
2022-10-11T04:26:11.325Z,1017.19
2022-10-11T04:27:11.294Z,1017.26
2022-10-11T04:28:11.295Z,1017.21
2022-10-11T04:29:11.281Z,1017.21
2022-10-11T04:30:11.291Z,1017.23
2022-10-11T04:31:11.257Z,1017.25
2022-10-11T04:32:11.262Z,1017.24
2022-10-11T04:33:11.226Z,1017.26
2022-10-11T04:34:11.223Z,1017.29
2022-10-11T04:35:11.229Z,1017.32
2022-10-11T04:36:11.216Z,1017.30
2022-10-11T04:37:11.189Z,1017.34
2022-10-11T04:38:11.178Z,1017.29
2022-10-11T04:39:11.181Z,1017.32
2022-10-11T04:40:11.179Z,1017.35
2022-10-11T04:41:11.154Z,1017.35
2022-10-11T04:42:11.142Z,1017.35
2022-10-11T04:43:11.128Z,1017.36
2022-10-11T04:44:11.133Z,1017.36
2022-10-11T04:45:18.185Z,1017.37
2022-10-11T04:46:11.587Z,1017.42
2022-10-11T04:47:11.067Z,1017.39
2022-10-11T04:48:11.065Z,1017.37
2022-10-11T04:49:11.052Z,1017.35
2022-10-11T04:50:11.034Z,1017.33
2022-10-11T04:51:11.045Z,1017.39
2022-10-11T04:52:11.024Z,1017.37
2022-10-11T04:53:11.008Z,1017.40
2022-10-11T04:54:11.567Z,1017.39
2022-10-11T04:55:10.990Z,1017.43
2022-10-11T04:56:11.013Z,1017.40
2022-10-11T04:57:10.974Z,1017.46
2022-10-11T04:58:10.965Z,1017.48
2022-10-11T04:59:10.959Z,1017.52
2022-10-11T05:00:10.923Z,1017.51
2022-10-11T05:01:10.915Z,1017.54
2022-10-11T05:02:11.004Z,1017.52
2022-10-11T05:03:10.913Z,1017.57
2022-10-11T05:04:10.881Z,1017.61
2022-10-11T05:05:10.895Z,1017.55
2022-10-11T05:06:11.239Z,1017.60
2022-10-11T05:07:10.847Z,1017.60
2022-10-11T05:08:10.846Z,1017.69
2022-10-11T05:09:10.829Z,1017.66
2022-10-11T05:10:10.836Z,1017.71
2022-10-11T05:11:10.808Z,1017.73
2022-10-11T05:12:10.795Z,1017.71
2022-10-11T05:13:10.804Z,1017.73
2022-10-11T05:14:10.791Z,1017.72
2022-10-11T05:15:10.763Z,1017.71
2022-10-11T05:16:11.521Z,1017.76
2022-10-11T05:17:10.762Z,1017.70
2022-10-11T05:18:10.744Z,1017.77
2022-10-11T05:19:10.732Z,1017.78
2022-10-11T05:20:10.706Z,1017.78
2022-10-11T05:21:10.699Z,1017.78
2022-10-11T05:22:10.697Z,1017.81
2022-10-11T05:23:10.715Z,1017.84
2022-10-11T05:24:10.687Z,1017.84
2022-10-11T05:25:10.663Z,1017.80
2022-10-11T05:26:10.716Z,1017.82
2022-10-11T05:27:10.820Z,1017.85
2022-10-11T05:28:10.784Z,1017.86
2022-10-11T05:29:19.278Z,1017.90
2022-10-11T05:30:10.605Z,1017.89
2022-10-11T05:31:13.121Z,1017.91
2022-10-11T05:32:10.584Z,1017.90
2022-10-11T05:33:10.585Z,1017.95
2022-10-11T05:34:10.579Z,1017.97
2022-10-11T05:35:10.557Z,1018.02
2022-10-11T05:36:10.539Z,1018.00
2022-10-11T05:37:10.532Z,1018.06
2022-10-11T05:38:10.541Z,1018.06
2022-10-11T05:39:10.510Z,1018.05
2022-10-11T05:40:10.501Z,1018.06
2022-10-11T05:41:10.490Z,1018.10
2022-10-11T05:42:10.483Z,1018.09
2022-10-11T05:43:10.511Z,1018.12
2022-10-11T05:44:10.451Z,1018.12
2022-10-11T05:45:10.467Z,1018.12
2022-10-11T05:46:10.437Z,1018.11
2022-10-11T05:47:10.424Z,1018.15
2022-10-11T05:48:10.410Z,1018.15
2022-10-11T05:49:10.407Z,1018.13
2022-10-11T05:50:10.393Z,1018.11
2022-10-11T05:51:10.382Z,1018.14
2022-10-11T05:52:10.371Z,1018.16
2022-10-11T05:53:10.371Z,1018.17
2022-10-11T05:54:10.361Z,1018.16
2022-10-11T05:55:10.351Z,1018.15
2022-10-11T05:56:10.332Z,1018.13
2022-10-11T05:57:10.317Z,1018.15
2022-10-11T05:58:10.330Z,1018.19
2022-10-11T05:59:10.311Z,1018.22
2022-10-11T06:00:10.282Z,1018.25
2022-10-11T06:01:10.369Z,1018.26
2022-10-11T06:02:10.274Z,1018.26
2022-10-11T06:03:10.254Z,1018.28
2022-10-11T06:04:10.236Z,1018.30
2022-10-11T06:05:10.245Z,1018.30
2022-10-11T06:06:10.857Z,1018.33
2022-10-11T06:07:10.218Z,1018.36
2022-10-11T06:08:10.203Z,1018.39
2022-10-11T06:09:10.192Z,1018.40
2022-10-11T06:10:10.199Z,1018.40
2022-10-11T06:11:12.038Z,1018.39
2022-10-11T06:12:10.153Z,1018.39
2022-10-11T06:13:10.153Z,1018.42
2022-10-11T06:14:10.132Z,1018.38
2022-10-11T06:15:10.116Z,1018.43
2022-10-11T06:16:10.136Z,1018.44
2022-10-11T06:17:10.121Z,1018.47
2022-10-11T06:18:10.118Z,1018.49
2022-10-11T06:19:10.081Z,1018.47
2022-10-11T06:20:10.075Z,1018.50
2022-10-11T06:21:10.056Z,1018.49
2022-10-11T06:22:10.053Z,1018.53
2022-10-11T06:23:10.040Z,1018.53
2022-10-11T06:24:10.024Z,1018.54
2022-10-11T06:25:10.010Z,1018.55
2022-10-11T06:26:10.468Z,1018.54
2022-10-11T06:27:09.986Z,1018.55
2022-10-11T06:28:10.017Z,1018.55
2022-10-11T06:29:10.002Z,1018.60
2022-10-11T06:30:10.645Z,1018.60
2022-10-11T06:31:09.971Z,1018.62
2022-10-11T06:32:09.950Z,1018.61
2022-10-11T06:33:09.966Z,1018.66
2022-10-11T06:34:09.915Z,1018.67
2022-10-11T06:35:09.894Z,1018.63
2022-10-11T06:36:09.906Z,1018.67
2022-10-11T06:37:09.897Z,1018.70
2022-10-11T06:38:09.875Z,1018.72
2022-10-11T06:39:09.863Z,1018.66
2022-10-11T06:40:09.855Z,1018.72
2022-10-11T06:41:09.836Z,1018.76
2022-10-11T06:42:09.916Z,1018.73
2022-10-11T06:43:09.837Z,1018.74
2022-10-11T06:44:14.022Z,1018.76
2022-10-11T06:45:09.961Z,1018.78
2022-10-11T06:46:09.780Z,1018.76
2022-10-11T06:47:09.768Z,1018.78
2022-10-11T06:48:09.888Z,1018.80
2022-10-11T06:49:09.785Z,1018.85
2022-10-11T06:50:09.748Z,1018.85
2022-10-11T06:51:09.835Z,1018.85
2022-10-11T06:52:09.718Z,1018.83
2022-10-11T06:53:09.726Z,1018.86
2022-10-11T06:54:09.713Z,1018.89
2022-10-11T06:55:09.695Z,1018.90
2022-10-11T06:56:09.869Z,1018.95
2022-10-11T06:57:09.661Z,1018.91
2022-10-11T06:58:09.696Z,1018.93
2022-10-11T06:59:10.600Z,1019.00
2022-10-11T07:00:12.664Z,1019.01
2022-10-11T07:01:09.700Z,1019.01
2022-10-11T07:02:09.608Z,1019.01
2022-10-11T07:03:09.611Z,1019.02
2022-10-11T07:04:09.605Z,1018.96
2022-10-11T07:05:09.622Z,1019.07
2022-10-11T07:06:10.067Z,1019.07
2022-10-11T07:07:09.555Z,1019.06
2022-10-11T07:08:09.562Z,1019.09
2022-10-11T07:09:09.572Z,1019.06
2022-10-11T07:10:09.533Z,1019.07
2022-10-11T07:11:09.549Z,1019.12
2022-10-11T07:12:09.508Z,1019.08
2022-10-11T07:13:13.552Z,1019.10
2022-10-11T07:14:10.483Z,1019.13
2022-10-11T07:15:09.485Z,1019.15
2022-10-11T07:16:09.844Z,1019.20
2022-10-11T07:17:09.466Z,1019.23
2022-10-11T07:18:09.450Z,1019.23
2022-10-11T07:19:09.441Z,1019.29
2022-10-11T07:20:09.421Z,1019.27
2022-10-11T07:21:09.442Z,1019.26
2022-10-11T07:22:09.422Z,1019.27
2022-10-11T07:23:09.386Z,1019.28
2022-10-11T07:24:09.387Z,1019.29
2022-10-11T07:25:09.361Z,1019.27
2022-10-11T07:26:09.780Z,1019.30
2022-10-11T07:27:09.339Z,1019.30
2022-10-11T07:28:09.456Z,1019.32
2022-10-11T07:29:09.328Z,1019.36
2022-10-11T07:30:09.315Z,1019.35
2022-10-11T07:31:09.308Z,1019.38
2022-10-11T07:32:09.293Z,1019.42
2022-10-11T07:33:09.300Z,1019.41
2022-10-11T07:34:09.273Z,1019.42
2022-10-11T07:35:09.254Z,1019.40
2022-10-11T07:36:09.532Z,1019.40
2022-10-11T07:37:09.267Z,1019.42
2022-10-11T07:38:09.229Z,1019.35
2022-10-11T07:39:09.220Z,1019.39
2022-10-11T07:40:09.236Z,1019.38
2022-10-11T07:41:09.187Z,1019.43
2022-10-11T07:42:09.178Z,1019.45
2022-10-11T07:43:09.175Z,1019.45
2022-10-11T07:44:09.198Z,1019.47
2022-10-11T07:45:09.149Z,1019.50
2022-10-11T07:46:09.923Z,1019.52
2022-10-11T07:47:11.412Z,1019.54
2022-10-11T07:48:09.129Z,1019.57
2022-10-11T07:49:09.116Z,1019.53
2022-10-11T07:50:09.123Z,1019.54
2022-10-11T07:51:09.079Z,1019.57
2022-10-11T07:52:09.075Z,1019.62
2022-10-11T07:53:09.081Z,1019.58
2022-10-11T07:54:09.048Z,1019.60
2022-10-11T07:55:09.041Z,1019.63
2022-10-11T07:56:09.372Z,1019.66
2022-10-11T07:57:09.014Z,1019.59
2022-10-11T07:58:09.014Z,1019.63
2022-10-11T07:59:09.041Z,1019.61
2022-10-11T08:00:08.990Z,1019.58
2022-10-11T08:01:09.079Z,1019.61
2022-10-11T08:02:08.971Z,1019.60
2022-10-11T08:03:08.953Z,1019.65
2022-10-11T08:04:08.945Z,1019.65
2022-10-11T08:05:08.946Z,1019.63
2022-10-11T08:06:09.577Z,1019.66
2022-10-11T08:07:08.929Z,1019.68
2022-10-11T08:08:08.912Z,1019.70
2022-10-11T08:09:08.899Z,1019.69
2022-10-11T08:10:08.873Z,1019.68
2022-10-11T08:11:08.905Z,1019.70
2022-10-11T08:12:08.874Z,1019.69
2022-10-11T08:13:08.861Z,1019.61
2022-10-11T08:14:08.940Z,1019.63
2022-10-11T08:15:08.829Z,1019.63
2022-10-11T08:16:09.017Z,1019.62
2022-10-11T08:17:08.804Z,1019.63
2022-10-11T08:18:08.806Z,1019.63
2022-10-11T08:19:08.809Z,1019.67
2022-10-11T08:20:08.777Z,1019.66
2022-10-11T08:21:08.770Z,1019.68
2022-10-11T08:22:08.744Z,1019.68
2022-10-11T08:23:08.739Z,1019.71
2022-10-11T08:24:08.743Z,1019.74
2022-10-11T08:25:08.737Z,1019.74
2022-10-11T08:26:09.095Z,1019.70
2022-10-11T08:27:08.686Z,1019.73
2022-10-11T08:28:08.799Z,1019.76
2022-10-11T08:29:08.690Z,1019.78
2022-10-11T08:30:08.666Z,1019.71
2022-10-11T08:31:08.665Z,1019.74
2022-10-11T08:32:08.645Z,1019.82
2022-10-11T08:33:08.865Z,1019.84
2022-10-11T08:34:08.616Z,1019.87
2022-10-11T08:35:08.613Z,1019.83
2022-10-11T08:36:09.438Z,1019.92
2022-10-11T08:37:08.580Z,1019.91
2022-10-11T08:38:08.583Z,1019.96
2022-10-11T08:39:08.559Z,1019.98
2022-10-11T08:40:08.572Z,1020.00
2022-10-11T08:41:08.561Z,1019.94
2022-10-11T08:42:08.535Z,1019.97
2022-10-11T08:43:08.514Z,1019.97
2022-10-11T08:44:08.510Z,1020.03
2022-10-11T08:45:11.547Z,1020.04
2022-10-11T08:46:09.158Z,1019.99
2022-10-11T08:47:08.479Z,1020.02
2022-10-11T08:48:08.474Z,1019.97
2022-10-11T08:49:08.458Z,1020.01
2022-10-11T08:50:08.458Z,1020.03
2022-10-11T08:51:08.429Z,1020.05
2022-10-11T08:52:08.434Z,1019.98
2022-10-11T08:53:08.406Z,1019.88
2022-10-11T08:54:08.414Z,1019.87
2022-10-11T08:55:08.406Z,1019.93
2022-10-11T08:56:09.071Z,1019.92
2022-10-11T08:57:08.392Z,1019.91
2022-10-11T08:58:08.370Z,1019.93
2022-10-11T08:59:08.347Z,1019.89
2022-10-11T09:00:08.344Z,1019.96
2022-10-11T09:01:08.380Z,1019.99
2022-10-11T09:02:08.317Z,1019.97
2022-10-11T09:03:09.507Z,1019.93
2022-10-11T09:04:08.303Z,1019.96
2022-10-11T09:05:08.284Z,1019.97
2022-10-11T09:06:09.007Z,1020.01
2022-10-11T09:07:08.286Z,1020.02
2022-10-11T09:08:08.258Z,1020.01
2022-10-11T09:09:08.260Z,1020.00
2022-10-11T09:10:08.232Z,1020.00
2022-10-11T09:11:08.230Z,1020.02
2022-10-11T09:12:08.251Z,1019.99
2022-10-11T09:13:08.222Z,1020.03
2022-10-11T09:14:08.210Z,1020.00
2022-10-11T09:15:08.189Z,1019.99
2022-10-11T09:16:08.521Z,1019.97
2022-10-11T09:17:08.181Z,1020.03
2022-10-11T09:18:08.170Z,1020.00
2022-10-11T09:19:08.146Z,1020.00
2022-10-11T09:20:08.136Z,1019.96
2022-10-11T09:21:08.123Z,1019.99
2022-10-11T09:22:08.114Z,1020.00
2022-10-11T09:23:08.114Z,1019.96
2022-10-11T09:24:08.133Z,1019.98
2022-10-11T09:25:08.074Z,1019.95
2022-10-11T09:26:08.530Z,1020.01
2022-10-11T09:27:08.057Z,1019.98
2022-10-11T09:28:08.136Z,1020.01
2022-10-11T09:29:08.128Z,1019.99
2022-10-11T09:30:08.040Z,1020.04
2022-10-11T09:31:08.006Z,1020.04
2022-10-11T09:32:07.997Z,1020.01
2022-10-11T09:33:07.991Z,1020.02
2022-10-11T09:34:07.974Z,1020.01
2022-10-11T09:35:08.007Z,1020.07
2022-10-11T09:36:08.308Z,1020.05
2022-10-11T09:37:07.974Z,1020.05
2022-10-11T09:38:07.944Z,1020.13
2022-10-11T09:39:07.922Z,1020.05
2022-10-11T09:40:07.914Z,1020.19
2022-10-11T09:41:07.907Z,1020.29
2022-10-11T09:42:07.955Z,1020.26
2022-10-11T09:43:07.902Z,1020.24
2022-10-11T09:44:07.901Z,1020.05
2022-10-11T09:45:07.887Z,1020.05
2022-10-11T09:46:08.307Z,1020.02
2022-10-11T09:47:07.839Z,1020.03
2022-10-11T09:48:07.830Z,1020.05
2022-10-11T09:49:07.834Z,1020.05
2022-10-11T09:50:07.817Z,1020.04
2022-10-11T09:51:07.793Z,1020.04
2022-10-11T09:52:07.792Z,1020.04
2022-10-11T09:53:07.780Z,1020.00
2022-10-11T09:54:07.784Z,1020.02
2022-10-11T09:55:07.766Z,1019.98
2022-10-11T09:56:08.329Z,1019.94
2022-10-11T09:57:07.738Z,1019.90
2022-10-11T09:58:07.717Z,1019.99
2022-10-11T09:59:07.718Z,1019.97
2022-10-11T10:00:07.721Z,1019.95
2022-10-11T10:01:08.459Z,1020.01
2022-10-11T10:02:07.745Z,1019.98
2022-10-11T10:03:07.671Z,1019.96
2022-10-11T10:04:07.675Z,1019.97
2022-10-11T10:05:07.651Z,1019.96
2022-10-11T10:06:08.377Z,1020.01
2022-10-11T10:07:07.637Z,1020.02
2022-10-11T10:08:07.636Z,1020.09
2022-10-11T10:09:07.604Z,1020.05
2022-10-11T10:10:07.610Z,1020.03
2022-10-11T10:11:07.587Z,1020.08
2022-10-11T10:12:07.572Z,1020.02
2022-10-11T10:13:07.567Z,1020.05
2022-10-11T10:14:07.551Z,1020.05
2022-10-11T10:15:07.551Z,1020.01
2022-10-11T10:16:08.056Z,1020.06
2022-10-11T10:17:07.569Z,1020.07
2022-10-11T10:18:07.538Z,1020.10
2022-10-11T10:19:07.501Z,1020.06
2022-10-11T10:20:07.500Z,1020.15
2022-10-11T10:21:07.497Z,1020.16
2022-10-11T10:22:07.474Z,1020.10
2022-10-11T10:23:07.451Z,1020.09
2022-10-11T10:24:07.461Z,1020.10
2022-10-11T10:25:07.429Z,1020.14
2022-10-11T10:26:08.018Z,1020.13
2022-10-11T10:27:07.405Z,1020.09
2022-10-11T10:28:07.442Z,1020.13
2022-10-11T10:29:07.395Z,1020.15
2022-10-11T10:30:07.381Z,1020.15
2022-10-11T10:31:07.367Z,1020.16
2022-10-11T10:32:14.382Z,1020.16
2022-10-11T10:33:08.371Z,1020.12
2022-10-11T10:34:07.338Z,1020.07
2022-10-11T10:35:07.320Z,1020.14
2022-10-11T10:36:07.794Z,1020.13
2022-10-11T10:37:07.325Z,1020.16
2022-10-11T10:38:07.289Z,1020.24
2022-10-11T10:39:07.299Z,1020.27
2022-10-11T10:40:07.266Z,1020.27
2022-10-11T10:41:07.256Z,1020.27
2022-10-11T10:42:07.266Z,1020.27
2022-10-11T10:43:07.255Z,1020.26
2022-10-11T10:44:07.226Z,1020.29
2022-10-11T10:45:11.296Z,1020.38
2022-10-11T10:46:08.642Z,1020.29
2022-10-11T10:47:07.193Z,1020.30
2022-10-11T10:48:07.195Z,1020.25
2022-10-11T10:50:08.158Z,1020.23
2022-10-11T10:51:10.455Z,1020.22
2022-10-11T10:52:07.146Z,1020.21
2022-10-11T10:53:07.147Z,1020.23
2022-10-11T10:54:07.142Z,1020.20
2022-10-11T10:55:07.113Z,1020.22
2022-10-11T10:56:07.432Z,1020.21
2022-10-11T10:57:07.093Z,1020.25
2022-10-11T10:58:07.077Z,1020.21
2022-10-11T10:59:07.059Z,1020.26
2022-10-11T11:00:07.067Z,1020.26
2022-10-11T11:01:07.064Z,1020.22
2022-10-11T11:02:28.228Z,1020.22
2022-10-11T11:03:08.021Z,1020.15
2022-10-11T11:04:07.026Z,1020.18
2022-10-11T11:05:07.017Z,1020.21
2022-10-11T11:06:07.479Z,1020.22
2022-10-11T11:07:06.975Z,1020.23
2022-10-11T11:08:06.975Z,1020.19
2022-10-11T11:09:06.953Z,1020.24
2022-10-11T11:10:06.957Z,1020.22
2022-10-11T11:11:06.955Z,1020.20
2022-10-11T11:12:06.947Z,1020.21
2022-10-11T11:13:06.934Z,1020.20
2022-10-11T11:14:06.903Z,1020.25
2022-10-11T11:15:06.897Z,1020.17
2022-10-11T11:16:07.295Z,1020.19
2022-10-11T11:17:06.887Z,1020.19
2022-10-11T11:18:06.874Z,1020.16
2022-10-11T11:19:06.853Z,1020.23
2022-10-11T11:20:06.842Z,1020.20
2022-10-11T11:21:06.878Z,1020.19
2022-10-11T11:22:06.821Z,1020.20
2022-10-11T11:23:06.849Z,1020.10
2022-10-11T11:24:06.811Z,1020.12
2022-10-11T11:25:06.783Z,1020.09
2022-10-11T11:26:07.115Z,1020.08
2022-10-11T11:27:06.788Z,1020.09
2022-10-11T11:28:06.766Z,1020.14
2022-10-11T11:29:06.757Z,1020.15
2022-10-11T11:30:06.737Z,1020.09
2022-10-11T11:31:07.073Z,1020.10
2022-10-11T11:32:06.712Z,1020.05
2022-10-11T11:33:06.706Z,1020.10
2022-10-11T11:34:06.700Z,1020.16
2022-10-11T11:35:06.686Z,1020.14
2022-10-11T11:36:07.181Z,1020.17
2022-10-11T11:37:06.706Z,1020.19
2022-10-11T11:38:06.770Z,1020.11
2022-10-11T11:39:06.649Z,1020.06
2022-10-11T11:40:06.627Z,1020.15
2022-10-11T11:41:07.066Z,1020.10
2022-10-11T11:42:06.614Z,1020.10
2022-10-11T11:43:06.611Z,1020.12
2022-10-11T11:44:06.578Z,1020.16
2022-10-11T11:45:06.576Z,1020.14
2022-10-11T11:46:06.558Z,1020.09
2022-10-11T11:47:06.556Z,1020.13
2022-10-11T11:48:06.542Z,1020.14
2022-10-11T11:49:10.811Z,1020.07
2022-10-11T11:50:07.538Z,1020.05
2022-10-11T11:51:06.990Z,1020.06
2022-10-11T11:52:06.493Z,1020.05
2022-10-11T11:53:06.505Z,1020.03
2022-10-11T11:54:06.474Z,1020.04
2022-10-11T11:55:06.468Z,1020.03
2022-10-11T11:56:06.470Z,1020.05
2022-10-11T11:57:06.437Z,1020.03
2022-10-11T11:58:07.365Z,1020.00
2022-10-11T11:59:06.425Z,1019.99
2022-10-11T12:00:06.407Z,1020.08
2022-10-11T12:01:06.705Z,1020.02
2022-10-11T12:02:06.593Z,1020.00
2022-10-11T12:03:06.372Z,1019.98
2022-10-11T12:04:06.362Z,1019.99
2022-10-11T12:05:06.370Z,1020.03
2022-10-11T12:06:06.367Z,1019.98